This is the latest recevied weather packets stored in our database for station/object kj4yre. If no packets are shown the sender has not sent any weather packets the latest 10 day(s).
| Time | Temp. | Humidity | Pressure | Rain* | Wind** | Luminosity | Snow |
|---|---|---|---|---|---|---|---|
| 1787875636 | 25° C | 91% | 1013.3 hPa | 0 mm | - | - | - |
| 1787875034 | 25.56° C | 90% | 1013.1 hPa | 0 mm | - | - | - |
| 1787874737 | 25.56° C | 89% | 1013.2 hPa | 0 mm | - | - | - |
| 1787870836 | 27.22° C | 82% | 1013 hPa | 0 mm | - | - | - |
| 1787870236 | 27.78° C | 80% | 1012.8 hPa | 0 mm | - | - | - |
| 1787868737 | 28.33° C | 78% | 1012.7 hPa | 0 mm | - | - | - |
| 1787867535 | 28.33° C | 76% | 1013.1 hPa | 0 mm | - | - | - |
| 1787866337 | 28.89° C | 74% | 1013 hPa | 0 mm | - | - | - |
| 1787864536 | 28.89° C | 70% | 1013.2 hPa | 0 mm | - | - | - |
| 1787863635 | 29.44° C | 70% | 1013.2 hPa | 0 mm | - | - | - |
| 1787861536 | 30° C | 69% | 1013.4 hPa | 0 mm | - | - | - |
| 1787860037 | 30.56° C | 67% | 1013.8 hPa | 0 mm | - | - | - |
| 1787859437 | 31.11° C | 65% | 1013.9 hPa | 0 mm | - | - | - |
| 1787858536 | 32.22° C | 53% | 1014 hPa | 0 mm | - | - | - |
| 1787857034 | 32.22° C | 54% | 1014.1 hPa | 0 mm | - | - | - |
| 1787856135 | 32.78° C | 53% | 1014.3 hPa | 0 mm | - | - | - |
| 1787854634 | 31.67° C | 51% | 1014.7 hPa | 0 mm | - | - | - |
| 1787853434 | 32.22° C | 54% | 1014.8 hPa | 0 mm | - | - | - |
| 1787852834 | 31.11° C | 56% | 1014.8 hPa | 0 mm | - | - | - |
| 1787852535 | 32.22° C | 56% | 1014.9 hPa | 0 mm | - | - | - |
| 1787850436 | 31.11° C | 57% | 1015.1 hPa | 0 mm | - | - | - |
| 1787841435 | 28.89° C | 74% | 1016.2 hPa | 0 mm | - | - | - |
| 1787841136 | 28.33° C | 74% | 1016.2 hPa | 0 mm | - | - | - |
| 1787839336 | 27.78° C | 79% | 1016 hPa | 0 mm | - | - | - |
| 1787836336 | 26.11° C | 86% | 1016.1 hPa | 0 mm | - | - | - |
* Rain latest hour (hover to see other rain measurements)
** Current wind speed in m/s (hover to see current wind gust speed)